createdAt,value
2022-09-29T00:02:07.553Z,6.26
2022-09-29T00:04:34.087Z,6.26
2022-09-29T00:07:00.487Z,6.24
2022-09-29T00:09:26.999Z,6.31
2022-09-29T00:11:56.878Z,6.30
2022-09-29T00:14:24.246Z,6.32
2022-09-29T00:16:50.954Z,6.32
2022-09-29T00:19:17.661Z,6.35
2022-09-29T00:21:44.146Z,6.33
2022-09-29T00:24:10.636Z,6.32
2022-09-29T00:26:37.212Z,6.34
2022-09-29T00:29:04.199Z,6.29
2022-09-29T00:31:33.119Z,6.31
2022-09-29T00:33:59.839Z,6.32
2022-09-29T00:36:30.317Z,6.27
2022-09-29T00:38:57.787Z,6.27
2022-09-29T00:41:28.871Z,6.27
2022-09-29T00:44:05.892Z,6.30
2022-09-29T00:46:59.248Z,6.26
2022-09-29T00:49:37.204Z,6.35
2022-09-29T00:52:16.166Z,6.29
2022-09-29T00:54:48.987Z,6.26
2022-09-29T00:57:18.751Z,6.32
2022-09-29T01:00:05.557Z,6.27
2022-09-29T01:02:35.705Z,6.27
2022-09-29T01:05:06.623Z,6.26
2022-09-29T01:07:34.003Z,6.29
2022-09-29T01:10:00.784Z,6.30
2022-09-29T01:12:27.366Z,6.30
2022-09-29T01:14:55.139Z,6.35
2022-09-29T01:17:22.900Z,6.32
2022-09-29T01:20:13.015Z,6.34
2022-09-29T01:22:57.992Z,6.36
2022-09-29T01:25:52.581Z,6.36
2022-09-29T01:28:21.908Z,6.47
2022-09-29T01:31:10.225Z,6.45
2022-09-29T01:33:56.646Z,6.45
2022-09-29T01:36:47.760Z,6.50
2022-09-29T01:39:25.043Z,6.51
2022-09-29T01:42:02.888Z,6.56
2022-09-29T01:44:32.708Z,6.59
2022-09-29T01:47:10.957Z,6.59
2022-09-29T01:49:42.006Z,6.61
2022-09-29T01:52:12.829Z,6.61
2022-09-29T01:55:04.834Z,6.64
2022-09-29T01:57:47.287Z,6.66
2022-09-29T02:00:17.441Z,6.68
2022-09-29T02:02:53.643Z,6.70
2022-09-29T02:05:25.200Z,6.71
2022-09-29T02:07:55.942Z,6.73
2022-09-29T02:10:27.168Z,6.70
2022-09-29T02:12:56.975Z,6.73
2022-09-29T02:15:32.281Z,6.74
2022-09-29T02:18:07.576Z,6.72
2022-09-29T02:20:34.331Z,6.72
2022-09-29T02:23:01.018Z,6.73
2022-09-29T02:25:27.430Z,6.71
2022-09-29T02:27:53.889Z,6.74
2022-09-29T02:30:20.448Z,6.73
2022-09-29T02:32:47.908Z,6.73
2022-09-29T02:35:15.335Z,6.70
2022-09-29T02:38:04.168Z,6.71
2022-09-29T02:40:57.046Z,6.72
2022-09-29T02:43:32.893Z,6.71
2022-09-29T02:46:19.548Z,6.71
2022-09-29T02:48:58.100Z,6.71
2022-09-29T02:51:47.559Z,6.78
2022-09-29T02:54:31.006Z,6.75
2022-09-29T02:57:00.699Z,6.72
2022-09-29T02:59:40.458Z,6.67
2022-09-29T03:02:06.850Z,6.68
2022-09-29T03:04:33.239Z,6.69
2022-09-29T03:06:59.622Z,6.65
2022-09-29T03:09:26.038Z,6.68
2022-09-29T03:11:52.445Z,6.63
2022-09-29T03:14:18.984Z,6.61
2022-09-29T03:16:45.509Z,6.57
2022-09-29T03:19:11.925Z,6.51
2022-09-29T03:21:38.338Z,6.46
2022-09-29T03:24:05.494Z,6.46
2022-09-29T03:26:31.887Z,6.49
2022-09-29T03:28:58.400Z,6.49
2022-09-29T03:31:24.880Z,6.45
2022-09-29T03:33:51.363Z,6.39
2022-09-29T03:36:17.890Z,6.37
2022-09-29T03:38:45.559Z,6.39
2022-09-29T03:41:12.263Z,6.39
2022-09-29T03:43:38.663Z,6.36
2022-09-29T03:46:05.908Z,6.30
2022-09-29T03:48:35.036Z,6.26
2022-09-29T03:51:01.872Z,6.25
2022-09-29T03:53:28.289Z,6.35
2022-09-29T03:55:54.680Z,6.32
2022-09-29T03:58:21.126Z,6.33
2022-09-29T04:00:49.583Z,6.30
2022-09-29T04:03:16.768Z,6.31
2022-09-29T04:05:45.564Z,6.36
2022-09-29T04:08:11.866Z,6.37
2022-09-29T04:10:38.897Z,6.36
2022-09-29T04:13:06.566Z,6.35
2022-09-29T04:15:33.317Z,6.37
2022-09-29T04:17:59.782Z,6.37
2022-09-29T04:20:26.864Z,6.38
2022-09-29T04:22:53.243Z,6.42
2022-09-29T04:25:19.948Z,6.44
2022-09-29T04:27:46.380Z,6.45
2022-09-29T04:30:12.898Z,6.46
2022-09-29T04:32:39.459Z,6.48
2022-09-29T04:35:06.189Z,6.47
2022-09-29T04:37:32.657Z,6.41
2022-09-29T04:39:59.054Z,6.38
2022-09-29T04:42:25.569Z,6.36
2022-09-29T04:44:52.058Z,6.41
2022-09-29T04:47:18.567Z,6.36
2022-09-29T04:49:45.148Z,6.35
2022-09-29T04:52:12.286Z,6.36
2022-09-29T04:54:39.056Z,6.38
2022-09-29T04:57:06.331Z,6.33
2022-09-29T04:59:33.037Z,6.37
2022-09-29T05:01:59.568Z,6.42
2022-09-29T05:04:25.994Z,6.42
2022-09-29T05:06:52.377Z,6.40
2022-09-29T05:09:21.641Z,6.39
2022-09-29T05:11:50.576Z,6.39
2022-09-29T05:14:16.952Z,6.39
2022-09-29T05:16:43.420Z,6.39
2022-09-29T05:19:10.804Z,6.36
2022-09-29T05:21:37.243Z,6.41
2022-09-29T05:24:03.780Z,6.52
2022-09-29T05:26:30.347Z,6.57
2022-09-29T05:28:56.724Z,6.57
2022-09-29T05:31:23.274Z,6.59
2022-09-29T05:33:49.815Z,6.61
2022-09-29T05:36:16.316Z,6.64
2022-09-29T05:38:42.730Z,6.73
2022-09-29T05:41:12.071Z,6.81
2022-09-29T05:43:39.736Z,6.90
2022-09-29T05:46:08.818Z,6.92
2022-09-29T05:48:35.803Z,7.00
2022-09-29T05:51:11.194Z,7.06
2022-09-29T05:53:38.066Z,7.11
2022-09-29T05:56:09.890Z,7.21
2022-09-29T05:58:37.686Z,7.30
2022-09-29T06:01:12.534Z,7.42
2022-09-29T06:03:39.631Z,7.64
2022-09-29T06:06:11.170Z,7.85
2022-09-29T06:08:38.550Z,8.10
2022-09-29T06:11:07.308Z,8.56
2022-09-29T06:13:34.578Z,8.99
2022-09-29T06:16:01.761Z,9.40
2022-09-29T06:18:28.215Z,9.61
2022-09-29T06:21:00.929Z,9.93
2022-09-29T06:23:27.294Z,10.33
2022-09-29T06:26:02.721Z,10.61
2022-09-29T06:28:29.317Z,11.00
2022-09-29T06:31:03.486Z,11.27
2022-09-29T06:33:31.268Z,11.28
2022-09-29T06:36:17.330Z,11.27
2022-09-29T06:38:43.852Z,11.18
2022-09-29T06:41:10.285Z,11.00
2022-09-29T06:43:36.677Z,10.93
2022-09-29T06:46:04.205Z,10.90
2022-09-29T06:48:30.672Z,11.02
2022-09-29T06:51:08.989Z,11.03
2022-09-29T06:53:38.617Z,11.08
2022-09-29T06:56:06.208Z,11.24
2022-09-29T06:58:32.791Z,11.58
2022-09-29T07:01:03.393Z,11.83
2022-09-29T07:03:30.282Z,12.39
2022-09-29T07:06:20.771Z,12.76
2022-09-29T07:08:43.631Z,12.94
2022-09-29T07:11:11.627Z,13.12
2022-09-29T07:13:38.892Z,13.65
2022-09-29T07:16:07.030Z,14.12
2022-09-29T07:18:35.425Z,14.30
2022-09-29T07:21:01.879Z,14.41
2022-09-29T07:23:28.748Z,14.33
2022-09-29T07:25:55.232Z,13.90
2022-09-29T07:28:21.765Z,13.62
2022-09-29T07:31:12.658Z,13.63
2022-09-29T07:33:41.207Z,13.76
2022-09-29T07:36:08.047Z,14.16
2022-09-29T07:38:34.495Z,14.48
2022-09-29T07:41:02.893Z,14.97
2022-09-29T07:43:30.568Z,15.05
2022-09-29T07:45:57.419Z,15.35
2022-09-29T07:48:26.816Z,15.51
2022-09-29T07:51:21.964Z,15.45
2022-09-29T07:53:48.451Z,15.61
2022-09-29T07:56:20.866Z,15.36
2022-09-29T07:58:49.814Z,15.26
2022-09-29T08:01:17.397Z,15.58
2022-09-29T08:03:48.711Z,16.31
2022-09-29T08:06:15.475Z,16.39
2022-09-29T08:08:52.917Z,16.11
2022-09-29T08:11:31.173Z,15.85
2022-09-29T08:13:58.388Z,15.94
2022-09-29T08:16:25.123Z,15.89
2022-09-29T08:18:51.687Z,15.52
2022-09-29T08:21:18.131Z,15.64
2022-09-29T08:23:44.720Z,15.81
2022-09-29T08:26:16.980Z,15.88
2022-09-29T08:28:44.536Z,16.03
2022-09-29T08:31:21.060Z,16.18
2022-09-29T08:33:51.285Z,16.53
2022-09-29T08:36:20.862Z,17.25
2022-09-29T08:38:52.719Z,17.00
2022-09-29T08:41:28.665Z,17.35
2022-09-29T08:44:26.353Z,17.25
2022-09-29T08:47:10.829Z,17.28
2022-09-29T08:49:48.366Z,16.68
2022-09-29T08:52:20.516Z,16.32
2022-09-29T08:54:50.516Z,16.56
2022-09-29T08:57:19.572Z,16.12
2022-09-29T08:59:58.822Z,16.03
2022-09-29T09:02:34.715Z,15.56
2022-09-29T09:05:20.019Z,15.61
2022-09-29T09:07:54.481Z,16.12
2022-09-29T09:10:27.632Z,16.46
2022-09-29T09:13:32.835Z,16.41
2022-09-29T09:16:25.668Z,16.06
2022-09-29T09:18:55.219Z,16.09
2022-09-29T09:21:37.455Z,16.11
2022-09-29T09:24:27.977Z,16.22
2022-09-29T09:26:56.163Z,16.31
2022-09-29T09:29:32.638Z,16.22
2022-09-29T09:32:22.092Z,16.14
2022-09-29T09:35:17.183Z,16.29
2022-09-29T09:37:48.547Z,16.36
2022-09-29T09:40:20.032Z,16.22
2022-09-29T09:43:20.319Z,16.41
2022-09-29T09:46:00.409Z,16.43
2022-09-29T09:48:41.923Z,16.24
2022-09-29T09:51:24.146Z,16.10
2022-09-29T09:53:54.888Z,15.93
2022-09-29T09:56:57.619Z,15.59
2022-09-29T09:59:43.406Z,15.72
2022-09-29T10:02:21.055Z,15.91
2022-09-29T10:04:52.867Z,15.88
2022-09-29T10:07:20.907Z,15.84
2022-09-29T10:09:48.375Z,15.63
2022-09-29T10:12:21.280Z,15.65
2022-09-29T10:15:01.575Z,15.83
2022-09-29T10:17:33.238Z,15.82
2022-09-29T10:20:04.768Z,15.84
2022-09-29T10:22:32.374Z,15.96
2022-09-29T10:25:19.070Z,15.92
2022-09-29T10:27:54.859Z,16.12
2022-09-29T10:30:24.604Z,16.24
2022-09-29T10:32:57.027Z,16.18
2022-09-29T10:35:27.077Z,16.35
2022-09-29T10:38:15.583Z,16.31
2022-09-29T10:41:04.874Z,16.32
2022-09-29T10:43:34.253Z,16.22
2022-09-29T10:46:00.707Z,16.18
2022-09-29T10:48:27.455Z,16.07
2022-09-29T10:53:37.166Z,15.61
2022-09-29T10:56:16.312Z,15.53
2022-09-29T10:58:59.000Z,15.43
2022-09-29T11:01:32.774Z,15.34
2022-09-29T11:04:03.448Z,15.25
2022-09-29T11:06:43.852Z,15.27
2022-09-29T11:09:13.937Z,15.34
2022-09-29T11:11:57.872Z,15.22
2022-09-29T11:14:36.878Z,15.28
2022-09-29T11:17:27.469Z,15.06
2022-09-29T11:19:57.913Z,14.92
2022-09-29T11:22:50.523Z,14.78
2022-09-29T11:25:30.277Z,14.69
2022-09-29T11:28:30.331Z,14.64
2022-09-29T11:31:09.390Z,14.67
2022-09-29T11:34:19.919Z,14.42
2022-09-29T11:37:11.385Z,14.38
2022-09-29T11:39:56.123Z,14.30
2022-09-29T11:42:43.732Z,14.29
2022-09-29T11:45:15.257Z,14.33
2022-09-29T11:47:47.848Z,14.40
2022-09-29T11:50:23.795Z,14.38
2022-09-29T11:53:16.026Z,14.29
2022-09-29T11:55:47.820Z,14.43
2022-09-29T11:58:45.929Z,14.23
2022-09-29T12:01:36.736Z,14.24
2022-09-29T12:04:12.229Z,14.33
2022-09-29T12:06:54.727Z,14.39
2022-09-29T12:09:45.738Z,14.46
2022-09-29T12:12:25.037Z,14.62
2022-09-29T12:15:33.348Z,14.69
2022-09-29T12:18:10.412Z,14.65
2022-09-29T12:20:42.727Z,14.61
2022-09-29T12:23:13.569Z,14.70
2022-09-29T12:25:52.010Z,14.76
2022-09-29T12:28:22.099Z,14.89
2022-09-29T12:31:08.705Z,15.00
2022-09-29T12:33:41.836Z,15.16
2022-09-29T12:36:50.299Z,15.13
2022-09-29T12:39:26.996Z,15.21
2022-09-29T12:42:08.195Z,15.16
2022-09-29T12:44:53.739Z,15.28
2022-09-29T12:47:47.554Z,15.34
2022-09-29T12:50:25.961Z,15.03
2022-09-29T12:52:58.806Z,15.04
2022-09-29T12:55:51.616Z,14.87
2022-09-29T12:58:43.091Z,14.78
2022-09-29T13:01:21.398Z,14.75
2022-09-29T13:03:53.868Z,14.61
2022-09-29T13:06:38.595Z,14.75
2022-09-29T13:09:26.721Z,14.62
2022-09-29T13:12:31.686Z,14.27
2022-09-29T13:15:28.865Z,14.29
2022-09-29T13:18:17.370Z,14.12
2022-09-29T13:21:01.342Z,14.16
2022-09-29T13:23:39.997Z,13.91
2022-09-29T13:26:47.218Z,13.76
2022-09-29T13:29:34.469Z,13.71
2022-09-29T13:32:02.239Z,13.70
2022-09-29T13:34:34.240Z,13.65
2022-09-29T13:37:21.166Z,13.60
2022-09-29T13:40:11.409Z,13.58
2022-09-29T13:42:40.965Z,13.47
2022-09-29T13:45:16.660Z,13.40
2022-09-29T13:47:57.902Z,13.18
2022-09-29T13:50:43.290Z,12.99
2022-09-29T13:53:33.922Z,12.94
2022-09-29T13:56:03.292Z,13.01
2022-09-29T13:58:48.015Z,12.93
2022-09-29T14:01:32.163Z,12.94
2022-09-29T14:03:59.227Z,12.88
2022-09-29T14:06:41.204Z,12.77
2022-09-29T14:09:18.142Z,12.64
2022-09-29T14:11:52.467Z,12.55
2022-09-29T14:14:25.679Z,12.49
2022-09-29T14:17:02.611Z,12.35
2022-09-29T14:19:38.232Z,12.35
2022-09-29T14:22:25.908Z,12.25
2022-09-29T14:24:55.831Z,12.16
2022-09-29T14:27:32.879Z,12.13
2022-09-29T14:30:08.759Z,11.95
2022-09-29T14:32:53.601Z,11.83
2022-09-29T14:35:20.006Z,11.75
2022-09-29T14:37:51.259Z,11.76
2022-09-29T14:40:30.752Z,11.73
2022-09-29T14:43:14.871Z,11.68
2022-09-29T14:46:28.112Z,11.65
2022-09-29T14:49:51.575Z,11.53
2022-09-29T14:52:47.354Z,11.46
2022-09-29T14:55:26.030Z,11.50
2022-09-29T14:58:05.169Z,11.50
2022-09-29T15:01:16.512Z,11.43
2022-09-29T15:03:52.697Z,11.34
2022-09-29T15:06:29.767Z,11.37
2022-09-29T15:09:02.077Z,11.46
2022-09-29T15:11:37.422Z,11.42
2022-09-29T15:14:24.357Z,11.40
2022-09-29T15:16:53.850Z,11.31
2022-09-29T15:19:55.222Z,11.28
2022-09-29T15:22:45.355Z,11.23
2022-09-29T15:25:29.883Z,11.24
2022-09-29T15:28:01.976Z,11.23
2022-09-29T15:30:29.998Z,11.25
2022-09-29T15:33:16.569Z,11.24
2022-09-29T15:35:45.787Z,11.21
2022-09-29T15:38:30.190Z,11.28
2022-09-29T15:40:59.173Z,11.25
2022-09-29T15:43:28.422Z,11.20
2022-09-29T15:46:00.019Z,11.25
2022-09-29T15:48:27.944Z,11.19
2022-09-29T15:50:55.814Z,11.19
2022-09-29T15:53:27.621Z,11.24
2022-09-29T15:55:55.611Z,11.22
2022-09-29T15:58:44.640Z,11.17
2022-09-29T16:01:13.941Z,11.16
2022-09-29T16:03:53.615Z,11.13
2022-09-29T16:06:35.479Z,11.02
2022-09-29T16:09:05.004Z,10.99
2022-09-29T16:11:34.920Z,11.01
2022-09-29T16:14:10.167Z,11.02
2022-09-29T16:16:42.163Z,10.95
2022-09-29T16:19:24.872Z,10.95
2022-09-29T16:21:55.066Z,10.93
2022-09-29T16:24:23.524Z,10.87
2022-09-29T16:26:52.522Z,10.79
2022-09-29T16:29:18.871Z,10.81
2022-09-29T16:31:47.917Z,10.74
2022-09-29T16:34:23.187Z,10.70
2022-09-29T16:36:52.168Z,10.68
2022-09-29T16:39:21.885Z,10.70
2022-09-29T16:41:50.482Z,10.76
2022-09-29T16:44:24.106Z,10.68
2022-09-29T16:46:57.785Z,10.66
2022-09-29T16:49:30.031Z,10.68
2022-09-29T16:52:00.458Z,10.66
2022-09-29T16:54:33.214Z,10.58
2022-09-29T16:57:27.611Z,10.54
2022-09-29T16:59:59.172Z,10.55
2022-09-29T17:02:27.355Z,10.53
2022-09-29T17:04:55.670Z,10.50
2022-09-29T17:07:24.657Z,10.50
2022-09-29T17:09:59.516Z,10.45
2022-09-29T17:12:28.380Z,10.46
2022-09-29T17:14:54.828Z,10.45
2022-09-29T17:17:24.201Z,10.42
2022-09-29T17:19:52.219Z,10.37
2022-09-29T17:22:31.319Z,10.39
2022-09-29T17:24:58.694Z,10.36
2022-09-29T17:27:44.748Z,10.33
2022-09-29T17:30:17.547Z,10.30
2022-09-29T17:32:53.272Z,10.35
2022-09-29T17:35:24.199Z,10.27
2022-09-29T17:37:50.653Z,10.23
2022-09-29T17:40:24.709Z,10.20
2022-09-29T17:42:51.522Z,10.20
2022-09-29T17:45:20.325Z,10.20
2022-09-29T17:47:49.335Z,10.19
2022-09-29T17:50:25.179Z,10.15
2022-09-29T17:52:52.503Z,10.10
2022-09-29T17:55:23.149Z,10.06
2022-09-29T17:57:50.536Z,10.05
2022-09-29T18:00:21.848Z,9.94
2022-09-29T18:02:50.365Z,9.90
2022-09-29T18:05:23.761Z,9.88
2022-09-29T18:07:52.115Z,9.89
2022-09-29T18:10:31.074Z,9.84
2022-09-29T18:12:57.983Z,9.78
2022-09-29T18:15:25.089Z,9.76
2022-09-29T18:17:55.988Z,9.70
2022-09-29T18:20:23.606Z,9.68
2022-09-29T18:22:50.062Z,9.63
2022-09-29T18:25:18.610Z,9.57
2022-09-29T18:27:48.919Z,9.57
2022-09-29T18:30:25.946Z,9.59
2022-09-29T18:32:58.909Z,9.51
2022-09-29T18:35:31.174Z,9.50
2022-09-29T18:37:59.189Z,9.42
2022-09-29T18:40:27.414Z,9.37
2022-09-29T18:42:57.430Z,9.38
2022-09-29T18:45:27.351Z,9.31
2022-09-29T18:48:04.763Z,9.24
2022-09-29T18:50:35.468Z,9.23
2022-09-29T18:53:01.977Z,9.25
2022-09-29T18:55:30.338Z,9.22
2022-09-29T18:57:58.602Z,9.16
2022-09-29T19:00:27.611Z,9.14
2022-09-29T19:02:54.792Z,9.13
2022-09-29T19:05:24.139Z,9.10
2022-09-29T19:07:56.281Z,9.06
2022-09-29T19:10:25.684Z,9.03
2022-09-29T19:12:53.335Z,9.02
2022-09-29T19:15:21.386Z,9.00
2022-09-29T19:17:49.594Z,8.95
2022-09-29T19:20:17.779Z,8.95
2022-09-29T19:22:44.833Z,8.88
2022-09-29T19:25:17.167Z,8.84
2022-09-29T19:27:44.931Z,8.81
2022-09-29T19:30:13.411Z,8.79
2022-09-29T19:32:40.208Z,8.79
2022-09-29T19:35:10.135Z,8.77
2022-09-29T19:37:36.883Z,8.77
2022-09-29T19:40:05.428Z,8.79
2022-09-29T19:42:31.975Z,8.75
2022-09-29T19:44:59.161Z,8.73
2022-09-29T19:47:25.643Z,8.75
2022-09-29T19:50:12.666Z,8.66
2022-09-29T19:52:39.080Z,8.63
2022-09-29T19:55:10.980Z,8.56
2022-09-29T19:57:42.116Z,8.47
2022-09-29T20:00:11.802Z,8.41
2022-09-29T20:02:38.424Z,8.43
2022-09-29T20:05:06.042Z,8.42
2022-09-29T20:07:32.504Z,8.38
2022-09-29T20:09:58.878Z,8.32
2022-09-29T20:12:25.381Z,8.27
2022-09-29T20:14:51.780Z,8.26
2022-09-29T20:17:18.315Z,8.21
2022-09-29T20:19:47.135Z,8.24
2022-09-29T20:22:14.352Z,8.20
2022-09-29T20:24:40.853Z,8.17
2022-09-29T20:27:07.267Z,8.15
2022-09-29T20:29:34.085Z,8.10
2022-09-29T20:32:03.143Z,8.09
2022-09-29T20:34:29.682Z,8.05
2022-09-29T20:36:56.302Z,7.98
2022-09-29T20:39:25.235Z,7.91
2022-09-29T20:41:54.368Z,7.86
2022-09-29T20:44:25.724Z,7.88
2022-09-29T20:46:54.099Z,7.82
2022-09-29T20:49:20.754Z,7.77
2022-09-29T20:51:47.477Z,7.74
2022-09-29T20:54:14.247Z,7.72
2022-09-29T20:56:41.665Z,7.69
2022-09-29T20:59:17.170Z,7.65
2022-09-29T21:01:44.392Z,7.62
2022-09-29T21:04:14.575Z,7.58
2022-09-29T21:06:43.484Z,7.54
2022-09-29T21:09:13.658Z,7.47
2022-09-29T21:11:41.144Z,7.45
2022-09-29T21:14:10.871Z,7.39
2022-09-29T21:16:41.681Z,7.32
2022-09-29T21:19:11.489Z,7.30
2022-09-29T21:21:38.873Z,7.27
2022-09-29T21:24:05.311Z,7.23
2022-09-29T21:26:31.779Z,7.21
2022-09-29T21:29:00.451Z,7.16
2022-09-29T21:31:33.785Z,7.12
2022-09-29T21:34:03.793Z,7.11
2022-09-29T21:36:32.439Z,7.08
2022-09-29T21:38:59.051Z,7.03
2022-09-29T21:41:32.023Z,6.97
2022-09-29T21:44:01.351Z,6.91
2022-09-29T21:46:30.615Z,6.91
2022-09-29T21:49:05.030Z,6.89
2022-09-29T21:51:37.890Z,6.83
2022-09-29T21:54:05.979Z,6.81
2022-09-29T21:56:35.952Z,6.77
2022-09-29T21:59:02.359Z,6.75
2022-09-29T22:01:28.837Z,6.71
2022-09-29T22:03:56.382Z,6.70
2022-09-29T22:06:26.148Z,6.71
2022-09-29T22:08:53.669Z,6.71
2022-09-29T22:11:23.982Z,6.67
2022-09-29T22:13:52.080Z,6.58
2022-09-29T22:16:21.890Z,6.54
2022-09-29T22:19:05.884Z,6.50
2022-09-29T22:21:35.652Z,6.46
2022-09-29T22:24:03.538Z,6.42
2022-09-29T22:26:31.901Z,6.43
2022-09-29T22:29:01.195Z,6.37
2022-09-29T22:31:28.299Z,6.37
2022-09-29T22:34:01.255Z,6.32
2022-09-29T22:36:31.070Z,6.29
2022-09-29T22:38:57.848Z,6.30
2022-09-29T22:41:24.466Z,6.32
2022-09-29T22:43:56.088Z,6.31
2022-09-29T22:46:24.477Z,6.32
2022-09-29T22:48:51.475Z,6.28
2022-09-29T22:51:18.651Z,6.31
2022-09-29T22:53:45.053Z,6.30
2022-09-29T22:56:15.597Z,6.25
2022-09-29T22:58:42.892Z,6.23
2022-09-29T23:01:15.472Z,6.23
2022-09-29T23:03:44.015Z,6.23
2022-09-29T23:06:11.006Z,6.22
2022-09-29T23:08:37.869Z,6.23
2022-09-29T23:11:06.468Z,6.25
2022-09-29T23:13:36.619Z,6.24
2022-09-29T23:16:09.663Z,6.25
2022-09-29T23:18:43.743Z,6.26
2022-09-29T23:21:13.573Z,6.27
2022-09-29T23:23:40.440Z,6.30
2022-09-29T23:26:06.975Z,6.28
2022-09-29T23:28:33.453Z,6.32
2022-09-29T23:31:07.684Z,6.35
2022-09-29T23:33:34.549Z,6.39
2022-09-29T23:36:06.217Z,6.40
2022-09-29T23:38:50.929Z,6.41
2022-09-29T23:41:19.760Z,6.40
2022-09-29T23:43:46.187Z,6.39
2022-09-29T23:46:13.301Z,6.38
2022-09-29T23:48:39.784Z,6.40
2022-09-29T23:51:07.911Z,6.40
2022-09-29T23:53:34.857Z,6.40
2022-09-29T23:56:01.682Z,6.40
2022-09-29T23:58:28.073Z,6.36
